Time;durP1;ratioP1;P1;durP2;ratioP2;P2;SDS_P1;SDS_P2;PMS_P1;PMS_P2;Temp;Humidity;BMP_temperature;BMP_pressure;BME280_temperature;BME280_humidity;BME280_pressure;Samples;Min_cycle;Max_cycle;Signal;HPM_P1;HPM_P2
2022/11/08 00:03:44;;;;;;;;;;;12.50;99.90;;;;;;5071867;28;19946;-63
2022/11/08 00:14:22;;;;;;;;;;;12.60;99.90;;;;;;5072233;28;19932;-63
2022/11/08 00:16:47;;;;;;;;;;;12.60;99.90;;;;;;5073078;28;20384;-64
2022/11/08 00:19:13;;;;;;;;;;;12.60;99.90;;;;;;5088771;28;19924;-63
2022/11/08 00:21:38;;;;;;;;;;;12.60;99.90;;;;;;5105472;28;19925;-63
2022/11/08 00:24:04;;;;;;;;;;;12.60;99.90;;;;;;5073238;28;19930;-63
2022/11/08 00:26:30;;;;;;;;;;;12.60;99.90;;;;;;5071685;28;20015;-63
2022/11/08 00:28:56;;;;;;;;;;;12.50;99.90;;;;;;5088642;28;20291;-63
2022/11/08 00:31:22;;;;;;;;;;;12.60;99.90;;;;;;5105685;28;20014;-63
2022/11/08 00:33:48;;;;;;;;;;;12.60;99.90;;;;;;5072416;28;19975;-63
2022/11/08 00:36:13;;;;;;;;;;;12.60;99.90;;;;;;5072756;28;20438;-63
2022/11/08 00:38:42;;;;;;;;;;;12.60;99.90;;;;;;5072381;28;19924;-63
2022/11/08 00:41:08;;;;;;;;;;;12.60;99.90;;;;;;5105554;28;20344;-64
2022/11/08 00:43:34;;;;;;;;;;;12.60;99.90;;;;;;5105234;28;19973;-68
2022/11/08 00:45:59;;;;;;;;;;;12.70;99.90;;;;;;5072611;28;19970;-63
2022/11/08 00:48:25;;;;;;;;;;;12.60;99.90;;;;;;5105204;28;19931;-66
2022/11/08 00:50:50;;;;;;;;;;;12.60;99.90;;;;;;5072276;28;19967;-64
2022/11/08 00:53:16;;;;;;;;;;;12.60;99.90;;;;;;5072422;28;19939;-63
2022/11/08 00:55:42;;;;;;;;;;;12.60;99.90;;;;;;5072227;28;20389;-63
2022/11/08 00:58:07;;;;;;;;;;;12.60;99.90;;;;;;5105164;28;20260;-64
2022/11/08 01:00:33;;;;;;;;;;;12.60;99.90;;;;;;5105448;28;20288;-64
2022/11/08 01:05:43;;;;;;;;;;;12.60;99.90;;;;;;5099699;28;19931;-64
2022/11/08 01:08:09;;;;;;;;;;;12.60;99.90;;;;;;5072204;28;19925;-63
2022/11/08 01:10:35;;;;;;;;;;;12.60;99.90;;;;;;5072380;28;20267;-63
2022/11/08 01:13:01;;;;;;;;;;;12.60;99.90;;;;;;5072179;28;20475;-66
2022/11/08 01:15:26;;;;;;;;;;;12.70;99.90;;;;;;5104008;27;19976;-64
2022/11/08 01:17:52;;;;;;;;;;;12.60;99.90;;;;;;5070916;28;19955;-64
2022/11/08 01:20:18;;;;;;;;;;;12.60;99.90;;;;;;5071300;28;19932;-64
2022/11/08 01:22:43;;;;;;;;;;;12.60;99.90;;;;;;5071576;28;20417;-64
2022/11/08 01:25:09;;;;;;;;;;;12.60;99.90;;;;;;5072350;28;19979;-64
2022/11/08 01:27:34;;;;;;;;;;;12.60;99.90;;;;;;5087732;28;19982;-64
2022/11/08 01:30:00;;;;;;;;;;;12.60;99.90;;;;;;5071961;28;20371;-64
2022/11/08 01:32:25;;;;;;;;;;;12.60;99.90;;;;;;5070669;28;19924;-64
2022/11/08 01:34:51;;;;;;;;;;;12.60;99.90;;;;;;5072029;28;20015;-66
2022/11/08 01:37:16;;;;;;;;;;;12.70;99.90;;;;;;5071929;28;19928;-64
2022/11/08 01:39:42;;;;;;;;;;;12.70;99.90;;;;;;5071615;28;19932;-66
2022/11/08 01:42:07;;;;;;;;;;;12.60;99.90;;;;;;5104556;28;20397;-64
2022/11/08 01:44:33;;;;;;;;;;;12.50;99.90;;;;;;5071792;28;20295;-64
2022/11/08 01:46:58;;;;;;;;;;;12.50;99.90;;;;;;5104034;28;20004;-65
2022/11/08 01:49:30;;;;;;;;;;;12.50;99.90;;;;;;5104304;28;20037;-64
2022/11/08 01:52:08;;;;;;;;;;;12.50;99.90;;;;;;5104328;28;20287;-64
2022/11/08 01:54:52;;;;;;;;;;;12.50;99.90;;;;;;5104319;28;19932;-65
2022/11/08 01:57:30;;;;;;;;;;;12.40;99.90;;;;;;5104678;28;19924;-65
2022/11/08 01:59:57;;;;;;;;;;;12.50;99.90;;;;;;5104229;28;20371;-64
2022/11/08 02:02:23;;;;;;;;;;;12.50;99.90;;;;;;5071614;28;20028;-64
2022/11/08 02:04:48;;;;;;;;;;;12.50;99.90;;;;;;5071378;28;19967;-63
2022/11/08 02:07:14;;;;;;;;;;;12.40;99.90;;;;;;5071584;28;19932;-63
2022/11/08 02:09:42;;;;;;;;;;;12.40;99.90;;;;;;5070281;28;19924;-63
2022/11/08 02:12:08;;;;;;;;;;;12.40;99.90;;;;;;5071107;28;19925;-63
2022/11/08 02:14:35;;;;;;;;;;;12.40;99.90;;;;;;5071690;28;19971;-64
2022/11/08 02:17:00;;;;;;;;;;;12.40;99.90;;;;;;5071450;28;19989;-65
2022/11/08 02:19:32;;;;;;;;;;;12.30;99.90;;;;;;5087222;28;19933;-64
2022/11/08 02:22:00;;;;;;;;;;;12.30;99.90;;;;;;5071156;28;19975;-64
2022/11/08 02:24:25;;;;;;;;;;;12.30;99.90;;;;;;5070622;28;19951;-63
2022/11/08 02:26:51;;;;;;;;;;;12.30;99.90;;;;;;5070785;28;20333;-65
2022/11/08 02:29:28;;;;;;;;;;;12.30;99.90;;;;;;5075262;28;19924;-65
2022/11/08 02:31:54;;;;;;;;;;;12.20;99.90;;;;;;5074774;28;19980;-64
2022/11/08 02:34:22;;;;;;;;;;;12.20;99.90;;;;;;5107994;28;19975;-64
2022/11/08 02:36:48;;;;;;;;;;;12.20;99.90;;;;;;5074716;28;19932;-68
2022/11/08 02:39:14;;;;;;;;;;;12.20;99.90;;;;;;5074001;28;19924;-63
2022/11/08 02:41:39;;;;;;;;;;;12.20;99.90;;;;;;5074842;28;19970;-63
2022/11/08 02:44:05;;;;;;;;;;;12.20;99.90;;;;;;5074573;28;19932;-65
2022/11/08 02:46:31;;;;;;;;;;;12.20;99.90;;;;;;5074055;28;19924;-65
2022/11/08 02:48:56;;;;;;;;;;;12.10;99.90;;;;;;5074783;28;20324;-65
2022/11/08 02:51:22;;;;;;;;;;;12.10;99.90;;;;;;5107420;28;19925;-66
2022/11/08 02:53:47;;;;;;;;;;;12.10;99.90;;;;;;5106550;28;20308;-64
2022/11/08 02:56:13;;;;;;;;;;;12.10;99.90;;;;;;5074019;28;19925;-65
2022/11/08 02:58:38;;;;;;;;;;;12.10;99.90;;;;;;5073482;28;19980;-64
2022/11/08 03:01:04;;;;;;;;;;;12.00;99.90;;;;;;5106770;28;20465;-64
2022/11/08 03:03:30;;;;;;;;;;;12.40;99.90;;;;;;5107182;28;19932;-64
2022/11/08 03:05:56;;;;;;;;;;;12.00;99.90;;;;;;5073953;28;19931;-64
2022/11/08 03:08:21;;;;;;;;;;;11.90;99.90;;;;;;5074258;28;20015;-64
2022/11/08 03:10:47;;;;;;;;;;;11.90;99.90;;;;;;5089799;28;20074;-64
2022/11/08 03:13:13;;;;;;;;;;;11.90;99.90;;;;;;5073839;28;20007;-64
2022/11/08 03:15:38;;;;;;;;;;;12.00;99.90;;;;;;5074038;28;20387;-64
2022/11/08 03:18:04;;;;;;;;;;;11.90;99.90;;;;;;5073970;28;19979;-64
2022/11/08 03:20:30;;;;;;;;;;;11.90;99.90;;;;;;5074400;28;20047;-64
2022/11/08 03:22:56;;;;;;;;;;;11.90;99.90;;;;;;5089293;28;20024;-65
2022/11/08 03:25:21;;;;;;;;;;;11.90;99.90;;;;;;5072938;28;20349;-64
2022/11/08 03:27:47;;;;;;;;;;;11.80;99.90;;;;;;5073254;28;19924;-64
2022/11/08 03:30:13;;;;;;;;;;;11.80;99.90;;;;;;5106280;28;19993;-64
2022/11/08 03:32:38;;;;;;;;;;;11.80;99.90;;;;;;5074176;28;19928;-64
2022/11/08 03:35:04;;;;;;;;;;;11.80;99.90;;;;;;5073399;28;19924;-64
2022/11/08 03:37:29;;;;;;;;;;;11.80;99.90;;;;;;5106084;28;20276;-64
2022/11/08 03:39:55;;;;;;;;;;;11.70;99.90;;;;;;5105907;28;19932;-64
2022/11/08 03:42:20;;;;;;;;;;;11.70;99.90;;;;;;5073315;28;19931;-64
2022/11/08 03:44:46;;;;;;;;;;;11.70;99.90;;;;;;5073468;28;19937;-63
2022/11/08 03:47:12;;;;;;;;;;;11.70;99.90;;;;;;5073165;28;20077;-63
2022/11/08 03:49:37;;;;;;;;;;;11.70;99.90;;;;;;5072227;28;19932;-64
2022/11/08 03:52:03;;;;;;;;;;;11.60;99.90;;;;;;5073293;28;19925;-64
2022/11/08 03:54:28;;;;;;;;;;;11.60;99.90;;;;;;5073369;28;19924;-64
2022/11/08 03:56:54;;;;;;;;;;;11.60;99.90;;;;;;5106008;28;20291;-64
2022/11/08 03:59:19;;;;;;;;;;;11.60;99.90;;;;;;5088739;28;19925;-62
2022/11/08 04:01:45;;;;;;;;;;;11.60;99.90;;;;;;5072213;28;19984;-63
2022/11/08 04:04:11;;;;;;;;;;;11.50;99.90;;;;;;5072004;28;19974;-63
2022/11/08 04:06:36;;;;;;;;;;;11.50;99.90;;;;;;5073074;28;19935;-63
2022/11/08 04:09:02;;;;;;;;;;;11.60;99.90;;;;;;5072650;28;19924;-64
2022/11/08 04:16:56;;;;;;;;;;;11.50;99.90;;;;;;5072821;28;20015;-64
2022/11/08 04:22:06;;;;;;;;;;;11.50;99.90;;;;;;5072589;28;19975;-64
2022/11/08 04:24:32;;;;;;;;;;;11.50;99.90;;;;;;5072507;28;20156;-64
2022/11/08 04:26:57;;;;;;;;;;;11.40;99.90;;;;;;5071362;28;19924;-65
2022/11/08 04:29:23;;;;;;;;;;;11.40;99.90;;;;;;5072240;28;20309;-64
2022/11/08 04:31:49;;;;;;;;;;;11.40;99.90;;;;;;5072583;28;19963;-64
2022/11/08 04:34:14;;;;;;;;;;;11.40;99.90;;;;;;5104933;28;19924;-65
2022/11/08 04:36:40;;;;;;;;;;;11.40;99.90;;;;;;5072436;28;19924;-64
2022/11/08 04:39:05;;;;;;;;;;;11.30;99.90;;;;;;5104676;28;19954;-64
2022/11/08 04:41:31;;;;;;;;;;;11.30;99.90;;;;;;5072349;28;19932;-64
2022/11/08 04:43:56;;;;;;;;;;;11.30;99.90;;;;;;5071135;28;19928;-64
2022/11/08 04:46:23;;;;;;;;;;;11.20;99.90;;;;;;5070883;28;19935;-64
2022/11/08 04:48:53;;;;;;;;;;;11.20;99.90;;;;;;5071005;28;20302;-65
2022/11/08 04:51:20;;;;;;;;;;;11.30;99.90;;;;;;5070931;28;19924;-64
2022/11/08 04:53:46;;;;;;;;;;;11.30;99.90;;;;;;5071208;28;19931;-64
2022/11/08 04:56:12;;;;;;;;;;;11.30;99.90;;;;;;5070758;28;19924;-64
2022/11/08 04:58:42;;;;;;;;;;;11.30;99.90;;;;;;5104426;28;19925;-64
2022/11/08 05:01:09;;;;;;;;;;;11.30;99.90;;;;;;5071762;28;20373;-64
2022/11/08 05:03:34;;;;;;;;;;;11.30;99.90;;;;;;5087902;28;19976;-64
2022/11/08 05:06:04;;;;;;;;;;;11.30;99.90;;;;;;5072140;28;19976;-64
2022/11/08 05:08:30;;;;;;;;;;;11.30;99.90;;;;;;5071539;28;19932;-64
2022/11/08 05:11:15;;;;;;;;;;;11.30;99.90;;;;;;5071064;28;19928;-65
2022/11/08 05:13:41;;;;;;;;;;;11.30;99.90;;;;;;5072120;28;19928;-63
2022/11/08 05:16:09;;;;;;;;;;;11.30;99.90;;;;;;5071700;28;19925;-65
2022/11/08 05:18:35;;;;;;;;;;;11.20;99.90;;;;;;5071833;28;19926;-64
2022/11/08 05:23:45;;;;;;;;;;;11.20;99.90;;;;;;5071890;28;19976;-64
2022/11/08 05:26:11;;;;;;;;;;;11.20;99.90;;;;;;5071538;28;19924;-64
2022/11/08 05:28:36;;;;;;;;;;;11.10;99.90;;;;;;5070661;28;19929;-65
2022/11/08 05:31:02;;;;;;;;;;;11.20;99.90;;;;;;5104606;28;20326;-64
2022/11/08 05:33:28;;;;;;;;;;;11.10;99.90;;;;;;5071505;28;19925;-64
2022/11/08 05:35:54;;;;;;;;;;;11.10;99.90;;;;;;5071686;28;20362;-65
2022/11/08 05:38:20;;;;;;;;;;;11.10;99.90;;;;;;5071160;28;19924;-64
2022/11/08 05:40:45;;;;;;;;;;;11.10;99.90;;;;;;5104198;28;19963;-64
2022/11/08 05:43:11;;;;;;;;;;;11.10;99.90;;;;;;5070677;28;19989;-65
2022/11/08 05:45:37;;;;;;;;;;;11.10;99.90;;;;;;5103739;28;19994;-64
2022/11/08 05:48:02;;;;;;;;;;;11.10;99.90;;;;;;5071096;28;19974;-64
2022/11/08 05:50:32;;;;;;;;;;;11.10;99.90;;;;;;5070847;28;19967;-64
2022/11/08 05:52:58;;;;;;;;;;;11.10;99.90;;;;;;5070600;28;20010;-64
2022/11/08 05:55:23;;;;;;;;;;;11.10;99.90;;;;;;5071155;28;20414;-64
2022/11/08 05:57:49;;;;;;;;;;;11.10;99.90;;;;;;5071568;28;20031;-64
2022/11/08 06:00:15;;;;;;;;;;;11.00;99.90;;;;;;5070598;28;19925;-66
2022/11/08 06:02:40;;;;;;;;;;;11.00;99.90;;;;;;5073289;28;20016;-64
2022/11/08 06:05:06;;;;;;;;;;;11.00;99.90;;;;;;5074601;28;19958;-64
2022/11/08 06:07:32;;;;;;;;;;;11.00;99.90;;;;;;5075411;28;19940;-65
2022/11/08 06:09:58;;;;;;;;;;;11.00;99.90;;;;;;5090979;28;19944;-65
2022/11/08 06:12:23;;;;;;;;;;;11.00;99.90;;;;;;5075111;28;19931;-64
2022/11/08 06:14:49;;;;;;;;;;;10.90;99.90;;;;;;5075287;28;19925;-64
2022/11/08 06:17:14;;;;;;;;;;;10.90;99.90;;;;;;5075645;28;19924;-63
2022/11/08 06:19:40;;;;;;;;;;;10.90;99.90;;;;;;5073944;28;19924;-64
2022/11/08 06:22:05;;;;;;;;;;;10.90;99.90;;;;;;5075507;28;20334;-64
2022/11/08 06:24:31;;;;;;;;;;;10.90;99.90;;;;;;5090278;28;20022;-64
2022/11/08 06:26:57;;;;;;;;;;;10.90;99.90;;;;;;5075104;28;20327;-63
2022/11/08 06:29:22;;;;;;;;;;;10.90;99.90;;;;;;5072805;28;19979;-64
2022/11/08 06:31:48;;;;;;;;;;;10.90;99.90;;;;;;5090139;28;19931;-65
2022/11/08 06:34:13;;;;;;;;;;;10.90;99.90;;;;;;5090400;28;19924;-64
2022/11/08 06:36:39;;;;;;;;;;;10.90;99.90;;;;;;5107040;28;20023;-63
2022/11/08 06:39:04;;;;;;;;;;;10.90;99.90;;;;;;5074354;28;19924;-64
2022/11/08 06:41:31;;;;;;;;;;;10.90;99.90;;;;;;5074532;28;19925;-64
2022/11/08 06:43:57;;;;;;;;;;;11.00;99.90;;;;;;5074516;28;19982;-65
2022/11/08 06:46:23;;;;;;;;;;;10.90;99.90;;;;;;5107014;28;19978;-64
2022/11/08 06:48:48;;;;;;;;;;;11.00;99.90;;;;;;5090413;28;19924;-66
2022/11/08 06:51:14;;;;;;;;;;;11.00;99.90;;;;;;5074540;28;20264;-65
2022/11/08 06:53:39;;;;;;;;;;;11.00;99.90;;;;;;5073284;28;19982;-65
2022/11/08 06:56:05;;;;;;;;;;;11.10;99.90;;;;;;5107298;28;20299;-65
2022/11/08 06:58:31;;;;;;;;;;;11.10;99.90;;;;;;5106745;28;20339;-65
2022/11/08 07:00:56;;;;;;;;;;;11.10;99.90;;;;;;5073190;28;19924;-65
2022/11/08 07:03:22;;;;;;;;;;;11.10;99.90;;;;;;5107453;28;19924;-65
2022/11/08 07:05:48;;;;;;;;;;;11.10;99.90;;;;;;5074175;28;19964;-65
2022/11/08 07:08:13;;;;;;;;;;;11.20;99.90;;;;;;5073203;28;19978;-65
2022/11/08 07:10:39;;;;;;;;;;;11.20;99.90;;;;;;5073925;28;19924;-65
2022/11/08 07:13:06;;;;;;;;;;;11.20;99.90;;;;;;5072422;28;20271;-63
2022/11/08 07:15:32;;;;;;;;;;;11.30;99.90;;;;;;5072424;28;20287;-64
2022/11/08 07:17:59;;;;;;;;;;;11.20;99.90;;;;;;5074237;28;19931;-64
2022/11/08 07:20:24;;;;;;;;;;;11.30;99.90;;;;;;5074140;28;20019;-64
2022/11/08 07:22:53;;;;;;;;;;;11.30;99.90;;;;;;5089597;28;20429;-65
2022/11/08 07:25:18;;;;;;;;;;;11.30;99.90;;;;;;5074292;28;19971;-64
2022/11/08 07:27:44;;;;;;;;;;;11.40;99.90;;;;;;5106094;28;20455;-64
2022/11/08 07:30:10;;;;;;;;;;;11.40;99.90;;;;;;5106268;28;20029;-63
2022/11/08 07:32:35;;;;;;;;;;;11.40;99.90;;;;;;5073579;28;19920;-63
2022/11/08 07:35:01;;;;;;;;;;;11.50;99.90;;;;;;5073048;28;19932;-63
2022/11/08 07:37:26;;;;;;;;;;;11.50;99.90;;;;;;5073895;28;19928;-64
2022/11/08 07:39:52;;;;;;;;;;;11.50;99.90;;;;;;5072487;28;20022;-65
2022/11/08 07:42:18;;;;;;;;;;;11.50;99.90;;;;;;5073751;28;20322;-64
2022/11/08 07:44:43;;;;;;;;;;;11.60;99.90;;;;;;5089238;28;19968;-64
2022/11/08 07:47:09;;;;;;;;;;;11.60;99.90;;;;;;5073763;28;19978;-64
2022/11/08 07:49:35;;;;;;;;;;;11.60;99.90;;;;;;5073116;28;20025;-64
2022/11/08 07:52:00;;;;;;;;;;;11.60;99.90;;;;;;5073298;28;19931;-65
2022/11/08 07:54:26;;;;;;;;;;;11.60;99.90;;;;;;5073107;28;19928;-64
2022/11/08 07:56:52;;;;;;;;;;;11.60;99.90;;;;;;5106224;28;19925;-64
2022/11/08 07:59:17;;;;;;;;;;;11.70;99.90;;;;;;5073396;28;20338;-64
2022/11/08 08:01:43;;;;;;;;;;;11.70;99.90;;;;;;5071547;28;19929;-64
2022/11/08 08:04:11;;;;;;;;;;;11.80;99.90;;;;;;5106355;28;19967;-64
2022/11/08 08:06:36;;;;;;;;;;;11.70;99.90;;;;;;5072572;28;20441;-63
2022/11/08 08:09:02;;;;;;;;;;;11.90;99.90;;;;;;5072054;28;19975;-65
2022/11/08 08:11:27;;;;;;;;;;;11.90;99.90;;;;;;5072747;28;19925;-65
2022/11/08 08:13:55;;;;;;;;;;;12.00;99.90;;;;;;5088250;28;20007;-66
2022/11/08 08:16:21;;;;;;;;;;;12.00;99.90;;;;;;5088473;28;19924;-66
2022/11/08 08:18:49;;;;;;;;;;;12.10;99.90;;;;;;5072907;28;19936;-67
2022/11/08 08:21:15;;;;;;;;;;;12.10;99.90;;;;;;5073106;28;20020;-66
2022/11/08 08:23:40;;;;;;;;;;;12.20;99.90;;;;;;5088715;28;19972;-66
2022/11/08 08:26:06;;;;;;;;;;;12.20;99.90;;;;;;5088576;28;19928;-66
2022/11/08 08:28:31;;;;;;;;;;;12.20;99.90;;;;;;5088117;28;20019;-66
2022/11/08 08:30:57;;;;;;;;;;;12.30;99.90;;;;;;5072388;28;19966;-67
2022/11/08 08:33:23;;;;;;;;;;;12.30;99.90;;;;;;5072715;28;19921;-67
2022/11/08 08:35:50;;;;;;;;;;;12.30;99.90;;;;;;5104769;28;19925;-66
2022/11/08 08:38:16;;;;;;;;;;;12.30;99.90;;;;;;5071335;28;19925;-65
2022/11/08 08:40:41;;;;;;;;;;;12.40;99.90;;;;;;5072046;28;20365;-66
2022/11/08 08:43:07;;;;;;;;;;;12.40;99.90;;;;;;5105181;28;19939;-66
2022/11/08 08:45:33;;;;;;;;;;;12.50;99.90;;;;;;5072491;28;19982;-65
2022/11/08 08:47:59;;;;;;;;;;;12.50;99.90;;;;;;5072107;28;20011;-65
2022/11/08 08:50:25;;;;;;;;;;;12.50;99.90;;;;;;5072806;28;19970;-65
2022/11/08 08:52:51;;;;;;;;;;;12.60;99.90;;;;;;5071048;28;19935;-65
2022/11/08 08:55:17;;;;;;;;;;;12.70;99.90;;;;;;5071947;28;19932;-65
2022/11/08 08:57:43;;;;;;;;;;;12.70;99.90;;;;;;5071709;28;20353;-65
2022/11/08 09:00:09;;;;;;;;;;;12.70;99.90;;;;;;5068494;28;20032;-70
2022/11/08 09:02:34;;;;;;;;;;;12.80;99.90;;;;;;5069827;28;20023;-66
2022/11/08 09:05:00;;;;;;;;;;;12.80;99.90;;;;;;5071403;28;19921;-67
2022/11/08 09:07:25;;;;;;;;;;;12.80;99.90;;;;;;5071622;28;19931;-66
2022/11/08 09:09:51;;;;;;;;;;;12.90;99.90;;;;;;5104231;28;20299;-65
2022/11/08 09:12:17;;;;;;;;;;;13.00;99.90;;;;;;5071544;28;19932;-66
2022/11/08 09:14:42;;;;;;;;;;;13.00;99.90;;;;;;5104655;28;19931;-69
2022/11/08 09:17:08;;;;;;;;;;;13.00;99.90;;;;;;5071063;28;20089;-66
2022/11/08 09:19:33;;;;;;;;;;;13.10;99.90;;;;;;5054181;28;20407;-65
2022/11/08 09:21:59;;;;;;;;;;;13.10;99.90;;;;;;5103900;28;19925;-65
2022/11/08 09:24:25;;;;;;;;;;;13.10;99.90;;;;;;5071784;28;20025;-65
2022/11/08 09:26:50;;;;;;;;;;;13.20;99.90;;;;;;5071343;28;20019;-66
2022/11/08 09:29:16;;;;;;;;;;;13.20;99.90;;;;;;5070376;28;19932;-65
2022/11/08 09:31:41;;;;;;;;;;;13.20;99.90;;;;;;5071797;28;19924;-66
2022/11/08 09:34:07;;;;;;;;;;;13.30;99.90;;;;;;5071117;28;19925;-65
2022/11/08 09:36:33;;;;;;;;;;;13.30;99.90;;;;;;5105606;28;19924;-65
2022/11/08 09:38:58;;;;;;;;;;;13.40;99.90;;;;;;5077796;28;19925;-67
2022/11/08 09:41:24;;;;;;;;;;;13.40;99.90;;;;;;5078502;28;19931;-63
2022/11/08 09:44:08;;;;;;;;;;;13.40;99.90;;;;;;5076920;28;19943;-64
2022/11/08 09:46:34;;;;;;;;;;;13.50;99.90;;;;;;5076936;28;19924;-64
2022/11/08 09:49:00;;;;;;;;;;;13.50;99.90;;;;;;5077986;28;19932;-65
2022/11/08 09:51:26;;;;;;;;;;;13.50;99.90;;;;;;5060555;28;20287;-64
2022/11/08 09:53:57;;;;;;;;;;;13.60;99.90;;;;;;5077109;28;19924;-64
2022/11/08 09:56:28;;;;;;;;;;;13.60;99.90;;;;;;5077884;28;20399;-64
2022/11/08 09:59:07;;;;;;;;;;;13.70;99.90;;;;;;5077732;28;19958;-64
2022/11/08 10:01:34;;;;;;;;;;;13.70;99.90;;;;;;5077522;28;19924;-65
2022/11/08 10:04:11;;;;;;;;;;;13.70;99.90;;;;;;5077632;28;20019;-65
2022/11/08 10:06:55;;;;;;;;;;;13.90;99.90;;;;;;5077806;28;20023;-65
2022/11/08 10:09:30;;;;;;;;;;;13.90;99.90;;;;;;5077373;28;20295;-66
2022/11/08 10:12:02;;;;;;;;;;;13.90;99.90;;;;;;5076215;28;19924;-65
2022/11/08 10:14:46;;;;;;;;;;;13.90;99.90;;;;;;5077785;28;19947;-65
2022/11/08 10:17:18;;;;;;;;;;;13.90;99.90;;;;;;5076656;28;19920;-64
2022/11/08 10:19:46;;;;;;;;;;;13.90;99.90;;;;;;5076908;28;20295;-64
2022/11/08 10:22:20;;;;;;;;;;;13.90;99.90;;;;;;5076760;28;20174;-66
2022/11/08 10:24:49;;;;;;;;;;;14.00;99.90;;;;;;5078057;28;20287;-64
2022/11/08 10:27:21;;;;;;;;;;;14.00;99.90;;;;;;5077504;28;19925;-64
2022/11/08 10:29:48;;;;;;;;;;;14.00;99.90;;;;;;5110416;28;19936;-64
2022/11/08 10:32:19;;;;;;;;;;;14.00;99.90;;;;;;5110654;28;19925;-65
2022/11/08 10:35:05;;;;;;;;;;;14.00;99.90;;;;;;5076841;28;19924;-64
2022/11/08 10:37:31;;;;;;;;;;;14.00;99.90;;;;;;5076267;28;19993;-64
2022/11/08 10:39:59;;;;;;;;;;;14.00;99.90;;;;;;5075972;28;19978;-65
2022/11/08 10:42:30;;;;;;;;;;;14.10;99.90;;;;;;5077707;28;19925;-66
2022/11/08 10:44:56;;;;;;;;;;;14.10;99.90;;;;;;5076660;28;19924;-64
2022/11/08 10:47:23;;;;;;;;;;;14.10;99.90;;;;;;5110935;28;20024;-64
2022/11/08 10:49:49;;;;;;;;;;;14.10;99.90;;;;;;5074505;28;19924;-64
2022/11/08 10:52:17;;;;;;;;;;;14.10;99.90;;;;;;5074119;28;20003;-66
2022/11/08 10:54:48;;;;;;;;;;;14.10;99.90;;;;;;5074608;28;19931;-67
2022/11/08 10:57:16;;;;;;;;;;;14.10;99.90;;;;;;5074076;28;19924;-64
2022/11/08 10:59:43;;;;;;;;;;;14.00;99.90;;;;;;5074146;28;20012;-65
2022/11/08 11:02:29;;;;;;;;;;;14.00;99.90;;;;;;5074000;28;19924;-64
2022/11/08 11:05:15;;;;;;;;;;;14.10;99.90;;;;;;5073544;28;19925;-64
2022/11/08 11:07:43;;;;;;;;;;;14.10;99.90;;;;;;5073435;28;19925;-65
2022/11/08 11:10:22;;;;;;;;;;;14.10;99.90;;;;;;5073649;28;19931;-68
2022/11/08 11:13:07;;;;;;;;;;;14.10;99.90;;;;;;5073995;28;19924;-66
2022/11/08 11:15:37;;;;;;;;;;;14.00;99.90;;;;;;5074213;28;19967;-65
2022/11/08 11:18:04;;;;;;;;;;;14.00;99.90;;;;;;5073521;28;19924;-67
2022/11/08 11:20:30;;;;;;;;;;;14.10;99.90;;;;;;5073381;28;20016;-64
2022/11/08 11:22:57;;;;;;;;;;;14.10;99.90;;;;;;5073850;28;20274;-64
2022/11/08 11:25:22;;;;;;;;;;;14.10;99.90;;;;;;5073373;28;19939;-65
2022/11/08 11:27:58;;;;;;;;;;;14.20;99.90;;;;;;5074165;28;19924;-65
2022/11/08 11:30:29;;;;;;;;;;;14.20;99.90;;;;;;5073560;28;19931;-64
2022/11/08 11:32:57;;;;;;;;;;;14.20;99.90;;;;;;5074030;28;19925;-64
2022/11/08 11:35:26;;;;;;;;;;;14.20;99.90;;;;;;5072286;28;19994;-66
2022/11/08 11:37:52;;;;;;;;;;;14.30;99.90;;;;;;5073824;28;19924;-65
2022/11/08 11:40:23;;;;;;;;;;;14.30;99.90;;;;;;5073469;28;19924;-68
2022/11/08 11:43:00;;;;;;;;;;;14.30;99.90;;;;;;5071239;28;19924;-64
2022/11/08 11:45:49;;;;;;;;;;;14.40;99.90;;;;;;5072934;28;19936;-65
2022/11/08 11:48:16;;;;;;;;;;;14.50;99.90;;;;;;5070712;28;19930;-65
2022/11/08 11:50:46;;;;;;;;;;;14.50;99.90;;;;;;5071604;28;19924;-65
2022/11/08 11:53:14;;;;;;;;;;;14.50;99.90;;;;;;5071368;28;19924;-64
2022/11/08 11:55:39;;;;;;;;;;;14.50;99.90;;;;;;5105953;28;19947;-65
2022/11/08 11:58:05;;;;;;;;;;;14.70;99.90;;;;;;5073035;28;20299;-64
2022/11/08 12:00:32;;;;;;;;;;;14.50;99.90;;;;;;5072867;28;20007;-65
2022/11/08 12:03:30;;;;;;;;;;;14.60;99.90;;;;;;5071732;28;19946;-65
2022/11/08 12:05:58;;;;;;;;;;;14.60;99.90;;;;;;5071572;28;20011;-66
2022/11/08 12:08:24;;;;;;;;;;;14.60;99.90;;;;;;5072550;28;20133;-64
2022/11/08 12:10:55;;;;;;;;;;;14.70;99.90;;;;;;5072332;28;20042;-65
2022/11/08 12:13:37;;;;;;;;;;;14.70;99.90;;;;;;5072644;28;20386;-65
2022/11/08 12:16:15;;;;;;;;;;;14.70;99.90;;;;;;5106319;28;20398;-65
2022/11/08 12:18:46;;;;;;;;;;;14.80;99.90;;;;;;5105806;28;19924;-65
2022/11/08 12:21:24;;;;;;;;;;;14.80;99.90;;;;;;5072949;28;19924;-65
2022/11/08 12:24:08;;;;;;;;;;;14.80;99.90;;;;;;5071781;28;20030;-65
2022/11/08 12:26:36;;;;;;;;;;;14.90;99.90;;;;;;5072786;28;19931;-65
2022/11/08 12:29:13;;;;;;;;;;;14.90;99.90;;;;;;5072800;28;19928;-65
2022/11/08 12:31:38;;;;;;;;;;;14.90;99.90;;;;;;5071959;28;19972;-65
2022/11/08 12:34:17;;;;;;;;;;;14.80;99.90;;;;;;5071631;28;20384;-63
2022/11/08 12:36:43;;;;;;;;;;;15.20;99.90;;;;;;5072605;28;19921;-66
2022/11/08 12:39:18;;;;;;;;;;;14.90;99.90;;;;;;5072569;28;20326;-67
2022/11/08 12:41:52;;;;;;;;;;;14.90;99.90;;;;;;5072640;28;19925;-66
2022/11/08 12:44:34;;;;;;;;;;;14.90;99.90;;;;;;5102974;28;19924;-65
2022/11/08 12:47:10;;;;;;;;;;;14.90;99.90;;;;;;5072290;28;19924;-65
2022/11/08 12:49:41;;;;;;;;;;;14.90;99.90;;;;;;5072448;28;20024;-64
2022/11/08 12:52:19;;;;;;;;;;;14.90;99.90;;;;;;5071608;28;19947;-69
2022/11/08 12:54:47;;;;;;;;;;;14.90;99.90;;;;;;5072154;28;19929;-64
2022/11/08 12:57:15;;;;;;;;;;;14.80;99.90;;;;;;5102828;28;20466;-72
2022/11/08 12:59:45;;;;;;;;;;;14.80;99.90;;;;;;5069569;28;19921;-64
2022/11/08 13:02:17;;;;;;;;;;;14.80;99.90;;;;;;5071950;28;19925;-70
2022/11/08 13:04:50;;;;;;;;;;;14.80;99.90;;;;;;5072294;28;19924;-64
2022/11/08 13:07:32;;;;;;;;;;;14.80;99.90;;;;;;5070325;28;20359;-63
2022/11/08 13:10:10;;;;;;;;;;;14.80;99.90;;;;;;5071033;28;19999;-67
2022/11/08 13:12:45;;;;;;;;;;;14.80;99.90;;;;;;5070710;28;19929;-63
2022/11/08 13:15:19;;;;;;;;;;;14.80;99.90;;;;;;5072054;28;19959;-64
2022/11/08 13:18:03;;;;;;;;;;;14.80;99.90;;;;;;5072054;28;20023;-64
2022/11/08 13:20:38;;;;;;;;;;;14.70;99.90;;;;;;5071910;28;19976;-65
2022/11/08 13:23:14;;;;;;;;;;;14.80;99.90;;;;;;5072230;28;19959;-63
2022/11/08 13:25:41;;;;;;;;;;;14.80;99.90;;;;;;5071675;28;19975;-64
2022/11/08 13:28:25;;;;;;;;;;;14.80;99.90;;;;;;5070672;28;20039;-63
2022/11/08 13:31:00;;;;;;;;;;;14.90;99.90;;;;;;5071054;28;19928;-63
2022/11/08 13:33:30;;;;;;;;;;;14.80;99.90;;;;;;5070600;28;19968;-64
2022/11/08 13:36:03;;;;;;;;;;;14.70;99.90;;;;;;5071928;28;19970;-63
2022/11/08 13:38:34;;;;;;;;;;;14.80;99.90;;;;;;5071783;28;19924;-63
2022/11/08 13:41:16;;;;;;;;;;;14.70;99.90;;;;;;5071914;28;20333;-63
2022/11/08 13:43:42;;;;;;;;;;;14.70;99.90;;;;;;5071942;28;19924;-63
2022/11/08 13:46:29;;;;;;;;;;;14.70;99.90;;;;;;5071633;28;20310;-63
2022/11/08 13:49:04;;;;;;;;;;;14.70;99.90;;;;;;5071615;28;19925;-64
2022/11/08 13:51:30;;;;;;;;;;;14.60;99.90;;;;;;5071423;28;19924;-63
2022/11/08 13:54:03;;;;;;;;;;;14.60;99.90;;;;;;5071393;28;19928;-63
2022/11/08 13:56:43;;;;;;;;;;;14.60;99.90;;;;;;5104117;28;19924;-64
2022/11/08 13:59:27;;;;;;;;;;;14.60;99.90;;;;;;5071854;28;19946;-64
2022/11/08 14:01:52;;;;;;;;;;;14.60;99.90;;;;;;5087125;28;20027;-63
2022/11/08 14:04:26;;;;;;;;;;;14.60;99.90;;;;;;5070654;28;19962;-63
2022/11/08 14:06:56;;;;;;;;;;;14.50;99.90;;;;;;5071065;28;20330;-64
2022/11/08 14:09:32;;;;;;;;;;;14.50;99.90;;;;;;5103781;28;19925;-63
2022/11/08 14:12:01;;;;;;;;;;;14.50;99.90;;;;;;5104376;28;19947;-64
2022/11/08 14:14:46;;;;;;;;;;;14.50;99.90;;;;;;5071091;28;19928;-64
2022/11/08 14:17:21;;;;;;;;;;;14.50;99.90;;;;;;5071273;28;19974;-64
2022/11/08 14:19:49;;;;;;;;;;;14.40;99.90;;;;;;5104469;28;19963;-64
2022/11/08 14:22:18;;;;;;;;;;;14.40;99.90;;;;;;5070000;28;19935;-65
2022/11/08 14:24:44;;;;;;;;;;;14.40;99.90;;;;;;5107698;28;20283;-65
2022/11/08 14:27:11;;;;;;;;;;;14.40;99.90;;;;;;5074589;28;20376;-63
2022/11/08 14:29:36;;;;;;;;;;;14.30;99.90;;;;;;5073408;28;19951;-63
2022/11/08 14:32:04;;;;;;;;;;;14.30;99.90;;;;;;5073940;28;19973;-63
2022/11/08 14:34:31;;;;;;;;;;;14.30;99.90;;;;;;5073751;28;19993;-63
2022/11/08 14:36:57;;;;;;;;;;;14.30;99.90;;;;;;5107969;28;19928;-63
2022/11/08 14:39:33;;;;;;;;;;;14.30;99.90;;;;;;5075022;28;19925;-63
2022/11/08 14:42:00;;;;;;;;;;;14.30;99.90;;;;;;5107693;28;19960;-63
2022/11/08 14:44:26;;;;;;;;;;;14.40;99.90;;;;;;5073782;28;19948;-63
2022/11/08 14:46:52;;;;;;;;;;;14.30;99.90;;;;;;5107916;28;19924;-64